createdAt,value
2022-07-28T00:00:15.465Z,4.10
2022-07-28T00:02:43.360Z,4.30
2022-07-28T00:05:11.467Z,4.30
2022-07-28T00:07:39.152Z,4.35
2022-07-28T00:10:07.482Z,4.13
2022-07-28T00:12:35.199Z,4.25
2022-07-28T00:15:02.988Z,4.13
2022-07-28T00:17:30.662Z,4.03
2022-07-28T00:19:58.319Z,4.28
2022-07-28T00:22:26.092Z,4.38
2022-07-28T00:24:53.718Z,4.55
2022-07-28T00:27:21.339Z,3.95
2022-07-28T00:29:51.041Z,4.95
2022-07-28T00:32:20.479Z,4.35
2022-07-28T00:34:48.684Z,4.50
2022-07-28T00:37:16.310Z,4.50
2022-07-28T00:39:44.355Z,4.47
2022-07-28T00:42:12.456Z,4.18
2022-07-28T00:44:42.055Z,4.80
2022-07-28T00:47:09.897Z,4.43
2022-07-28T00:49:37.612Z,4.60
2022-07-28T00:52:06.288Z,4.43
2022-07-28T00:54:34.314Z,4.50
2022-07-28T00:57:01.962Z,4.50
2022-07-28T00:59:29.700Z,4.55
2022-07-28T01:02:01.772Z,4.50
2022-07-28T01:04:30.442Z,4.78
2022-07-28T01:07:08.626Z,5.07
2022-07-28T01:09:51.077Z,5.07
2022-07-28T01:12:27.790Z,4.40
2022-07-28T01:15:13.874Z,5.10
2022-07-28T01:17:50.478Z,4.65
2022-07-28T01:20:39.627Z,4.63
2022-07-28T01:23:13.267Z,4.93
2022-07-28T01:25:48.350Z,4.63
2022-07-28T01:28:34.772Z,4.65
2022-07-28T01:31:04.020Z,4.70
2022-07-28T01:33:37.843Z,5.28
2022-07-28T01:36:19.482Z,5.38
2022-07-28T01:38:48.072Z,4.40
2022-07-28T01:41:18.761Z,4.82
2022-07-28T01:43:48.866Z,4.50
2022-07-28T01:46:17.263Z,4.95
2022-07-28T01:48:45.520Z,5.03
2022-07-28T01:51:14.360Z,5.07
2022-07-28T01:53:42.924Z,5.50
2022-07-28T01:56:11.010Z,5.50
2022-07-28T01:58:39.499Z,4.65
2022-07-28T02:01:07.934Z,5.32
2022-07-28T02:03:35.794Z,5.03
2022-07-28T02:06:05.552Z,5.25
2022-07-28T02:08:34.373Z,4.45
2022-07-28T02:11:20.855Z,5.20
2022-07-28T02:13:50.081Z,5.38
2022-07-28T02:16:18.784Z,5.00
2022-07-28T02:18:47.668Z,5.10
2022-07-28T02:21:15.754Z,4.78
2022-07-28T02:23:46.037Z,4.53
2022-07-28T02:26:14.776Z,4.40
2022-07-28T02:28:43.664Z,4.25
2022-07-28T02:31:14.932Z,3.92
2022-07-28T02:33:58.870Z,4.22
2022-07-28T02:36:27.618Z,4.00
2022-07-28T02:38:57.273Z,4.30
2022-07-28T02:41:28.369Z,3.88
2022-07-28T02:43:58.747Z,3.42
2022-07-28T02:46:27.451Z,3.17
2022-07-28T02:49:03.807Z,3.70
2022-07-28T02:51:33.806Z,3.20
2022-07-28T02:54:01.917Z,3.75
2022-07-28T02:56:29.958Z,3.20
2022-07-28T02:58:58.329Z,3.13
2022-07-28T03:01:26.275Z,3.22
2022-07-28T03:03:55.696Z,3.50
2022-07-28T03:06:28.517Z,3.25
2022-07-28T03:08:57.488Z,3.58
2022-07-28T03:11:25.161Z,3.67
2022-07-28T03:13:52.805Z,3.10
2022-07-28T03:16:20.473Z,3.78
2022-07-28T03:18:48.738Z,3.70
2022-07-28T03:21:16.346Z,3.33
2022-07-28T03:23:44.886Z,3.42
2022-07-28T03:26:28.601Z,3.45
2022-07-28T03:28:56.785Z,3.35
2022-07-28T03:31:25.123Z,3.85
2022-07-28T03:33:52.912Z,3.70
2022-07-28T03:36:35.702Z,3.35
2022-07-28T03:39:04.954Z,3.83
2022-07-28T03:41:34.158Z,3.72
2022-07-28T03:44:02.895Z,3.42
2022-07-28T03:46:30.670Z,3.50
2022-07-28T03:48:58.576Z,3.50
2022-07-28T03:51:28.334Z,3.72
2022-07-28T03:53:56.166Z,4.72
2022-07-28T03:56:23.810Z,4.03
2022-07-28T03:58:51.524Z,3.63
2022-07-28T04:01:19.269Z,4.07
2022-07-28T04:03:46.933Z,4.63
2022-07-28T04:06:15.338Z,4.30
2022-07-28T04:08:44.018Z,4.05
2022-07-28T04:11:11.667Z,4.35
2022-07-28T04:13:39.348Z,3.83
2022-07-28T04:16:07.755Z,3.85
2022-07-28T04:18:35.829Z,3.78
2022-07-28T04:21:03.450Z,4.45
2022-07-28T04:23:31.134Z,4.75
2022-07-28T04:25:58.836Z,3.92
2022-07-28T04:28:26.536Z,4.15
2022-07-28T04:30:54.259Z,4.22
2022-07-28T04:33:21.969Z,4.40
2022-07-28T04:35:49.693Z,3.78
2022-07-28T04:38:18.155Z,3.72
2022-07-28T04:40:46.085Z,4.47
2022-07-28T04:43:14.057Z,3.92
2022-07-28T04:45:45.989Z,4.50
2022-07-28T04:48:22.910Z,4.45
2022-07-28T04:50:52.749Z,4.10
2022-07-28T04:53:20.941Z,4.20
2022-07-28T04:55:49.487Z,4.10
2022-07-28T04:58:18.404Z,4.38
2022-07-28T05:00:50.055Z,5.90
2022-07-28T05:03:18.972Z,4.90
2022-07-28T05:05:47.479Z,4.97
2022-07-28T05:08:21.581Z,3.83
2022-07-28T05:10:49.457Z,4.40
2022-07-28T05:13:17.062Z,4.50
2022-07-28T05:15:44.732Z,4.00
2022-07-28T05:18:12.371Z,4.78
2022-07-28T05:20:40.075Z,4.63
2022-07-28T05:23:08.536Z,4.28
2022-07-28T05:25:37.907Z,4.90
2022-07-28T05:28:05.641Z,4.00
2022-07-28T05:30:33.311Z,4.65
2022-07-28T05:33:01.911Z,4.40
2022-07-28T05:35:29.859Z,4.70
2022-07-28T05:37:57.574Z,4.55
2022-07-28T05:40:26.609Z,4.50
2022-07-28T05:42:54.231Z,4.18
2022-07-28T05:45:21.951Z,4.03
2022-07-28T05:47:52.165Z,3.80
2022-07-28T05:50:21.595Z,4.95
2022-07-28T05:52:50.221Z,3.90
2022-07-28T05:55:18.230Z,4.22
2022-07-28T05:57:46.043Z,4.30
2022-07-28T06:00:15.227Z,4.70
2022-07-28T06:02:45.755Z,4.28
2022-07-28T06:05:14.178Z,4.00
2022-07-28T06:07:43.243Z,4.93
2022-07-28T06:10:15.742Z,4.43
2022-07-28T06:12:44.245Z,4.30
2022-07-28T06:15:16.319Z,4.00
2022-07-28T06:17:44.328Z,4.57
2022-07-28T06:20:12.838Z,3.92
2022-07-28T06:22:50.712Z,3.85
2022-07-28T06:25:19.683Z,4.35
2022-07-28T06:27:48.005Z,4.05
2022-07-28T06:30:16.219Z,3.67
2022-07-28T06:32:43.982Z,4.20
2022-07-28T06:35:14.642Z,4.60
2022-07-28T06:37:42.319Z,3.97
2022-07-28T06:40:11.871Z,4.13
2022-07-28T06:42:40.008Z,4.55
2022-07-28T06:45:08.007Z,4.10
2022-07-28T06:47:36.028Z,3.92
2022-07-28T06:50:25.559Z,4.10
2022-07-28T06:52:58.723Z,4.22
2022-07-28T06:55:28.431Z,4.60
2022-07-28T06:58:02.782Z,4.60
2022-07-28T07:00:30.695Z,4.15
2022-07-28T07:02:58.394Z,4.65
2022-07-28T07:05:28.260Z,4.57
2022-07-28T07:07:55.916Z,4.80
2022-07-28T07:10:23.855Z,4.88
2022-07-28T07:12:51.548Z,4.35
2022-07-28T07:15:19.305Z,4.45
2022-07-28T07:17:46.889Z,4.28
2022-07-28T07:20:16.602Z,4.88
2022-07-28T07:22:46.827Z,5.55
2022-07-28T07:25:15.780Z,4.88
2022-07-28T07:27:43.667Z,5.35
2022-07-28T07:30:11.638Z,4.93
2022-07-28T07:32:39.702Z,5.15
2022-07-28T07:35:07.865Z,4.63
2022-07-28T07:37:35.531Z,5.35
2022-07-28T07:40:04.491Z,5.85
2022-07-28T07:42:32.180Z,5.38
2022-07-28T07:44:59.804Z,5.30
2022-07-28T07:47:27.753Z,5.95
2022-07-28T07:49:55.373Z,6.05
2022-07-28T07:52:23.058Z,4.90
2022-07-28T07:54:50.687Z,5.05
2022-07-28T07:57:18.382Z,5.68
2022-07-28T07:59:46.015Z,5.50
2022-07-28T08:02:13.727Z,5.97
2022-07-28T08:04:41.420Z,5.45
2022-07-28T08:07:10.641Z,5.43
2022-07-28T08:09:38.332Z,5.20
2022-07-28T08:12:06.338Z,5.05
2022-07-28T08:14:34.177Z,5.15
2022-07-28T08:17:01.978Z,4.93
2022-07-28T08:19:29.596Z,5.72
2022-07-28T08:21:57.293Z,4.90
2022-07-28T08:24:32.696Z,4.90
2022-07-28T08:27:02.651Z,4.95
2022-07-28T08:29:30.537Z,5.63
2022-07-28T08:31:58.587Z,4.88
2022-07-28T08:34:32.805Z,5.65
2022-07-28T08:37:02.335Z,5.00
2022-07-28T08:39:30.269Z,5.38
2022-07-28T08:42:18.704Z,4.90
2022-07-28T08:44:55.067Z,5.00
2022-07-28T08:47:23.088Z,5.25
2022-07-28T08:49:52.581Z,4.47
2022-07-28T08:52:21.749Z,5.00
2022-07-28T08:54:50.329Z,5.25
2022-07-28T08:57:21.006Z,4.63
2022-07-28T08:59:50.222Z,5.45
2022-07-28T09:02:18.150Z,5.38
2022-07-28T09:04:46.451Z,5.15
2022-07-28T09:07:14.593Z,5.22
2022-07-28T09:09:42.313Z,5.03
2022-07-28T09:12:10.170Z,4.80
2022-07-28T09:14:37.843Z,5.03
2022-07-28T09:17:06.199Z,4.68
2022-07-28T09:19:35.827Z,5.00
2022-07-28T09:22:04.004Z,4.85
2022-07-28T09:24:39.764Z,4.75
2022-07-28T09:27:14.870Z,4.75
2022-07-28T09:29:45.786Z,5.20
2022-07-28T09:32:17.414Z,4.97
2022-07-28T09:34:48.729Z,4.95
2022-07-28T09:37:26.431Z,5.13
2022-07-28T09:39:59.014Z,4.53
2022-07-28T09:42:27.100Z,4.50
2022-07-28T09:45:25.059Z,4.70
2022-07-28T09:48:25.376Z,4.65
2022-07-28T09:50:53.194Z,5.10
2022-07-28T09:53:22.306Z,4.75
2022-07-28T09:55:56.822Z,4.63
2022-07-28T09:58:26.718Z,4.45
2022-07-28T10:01:13.487Z,5.13
2022-07-28T10:03:41.814Z,5.18
2022-07-28T10:06:14.826Z,4.72
2022-07-28T10:08:49.217Z,5.05
2022-07-28T10:11:17.905Z,5.45
2022-07-28T10:13:55.756Z,4.85
2022-07-28T10:16:28.314Z,5.18
2022-07-28T10:18:56.950Z,5.28
2022-07-28T10:21:25.551Z,5.60
2022-07-28T10:23:54.581Z,4.90
2022-07-28T10:26:26.072Z,4.60
2022-07-28T10:28:54.797Z,4.80
2022-07-28T10:31:29.739Z,4.93
2022-07-28T10:33:59.649Z,4.93
2022-07-28T10:36:28.118Z,5.20
2022-07-28T10:38:59.830Z,5.07
2022-07-28T10:43:55.419Z,4.97
2022-07-28T10:46:23.123Z,4.47
2022-07-28T10:48:50.906Z,4.68
2022-07-28T10:51:21.475Z,4.70
2022-07-28T10:53:54.811Z,5.40
2022-07-28T10:56:35.492Z,4.97
2022-07-28T10:59:29.063Z,4.70
2022-07-28T11:01:56.933Z,5.05
2022-07-28T11:04:47.975Z,4.70
2022-07-28T11:07:17.185Z,4.97
2022-07-28T11:09:47.392Z,5.13
2022-07-28T11:12:15.938Z,4.90
2022-07-28T11:14:44.782Z,5.57
2022-07-28T11:17:16.647Z,5.47
2022-07-28T11:22:41.399Z,5.22
2022-07-28T11:25:20.534Z,4.93
2022-07-28T11:27:50.489Z,5.13
2022-07-28T11:30:35.688Z,5.53
2022-07-28T11:33:04.508Z,5.15
2022-07-28T11:35:53.159Z,5.10
2022-07-28T11:38:21.351Z,5.07
2022-07-28T11:40:50.534Z,5.85
2022-07-28T11:43:35.565Z,5.35
2022-07-28T11:46:08.210Z,5.25
2022-07-28T11:48:42.043Z,5.60
2022-07-28T11:51:10.634Z,5.57
2022-07-28T11:53:39.818Z,5.38
2022-07-28T11:56:09.361Z,5.50
2022-07-28T11:58:37.594Z,5.45
2022-07-28T12:01:13.325Z,5.10
2022-07-28T12:03:50.007Z,5.20
2022-07-28T12:06:28.781Z,6.28
2022-07-28T12:09:02.322Z,5.82
2022-07-28T12:11:33.874Z,5.72
2022-07-28T12:14:01.492Z,5.25
2022-07-28T12:16:30.196Z,5.55
2022-07-28T12:19:02.782Z,5.75
2022-07-28T12:21:46.361Z,6.82
2022-07-28T12:24:24.533Z,6.32
2022-07-28T12:26:52.284Z,6.38
2022-07-28T12:29:20.452Z,5.40
2022-07-28T12:32:09.030Z,6.28
2022-07-28T12:34:37.738Z,6.45
2022-07-28T12:37:06.372Z,6.50
2022-07-28T12:39:36.921Z,6.90
2022-07-28T12:42:05.743Z,6.57
2022-07-28T12:44:37.190Z,6.63
2022-07-28T12:47:06.405Z,6.43
2022-07-28T12:49:35.247Z,7.22
2022-07-28T12:52:21.681Z,6.45
2022-07-28T12:54:54.210Z,7.20
2022-07-28T12:57:48.877Z,7.53
2022-07-28T13:00:21.813Z,7.28
2022-07-28T13:02:50.312Z,7.00
2022-07-28T13:05:28.113Z,6.85
2022-07-28T13:07:59.459Z,6.32
2022-07-28T13:10:30.298Z,6.78
2022-07-28T13:13:02.421Z,6.80
2022-07-28T13:15:30.141Z,7.28
2022-07-28T13:17:58.877Z,7.38
2022-07-28T13:20:26.983Z,7.10
2022-07-28T13:22:55.026Z,6.82
2022-07-28T13:25:22.913Z,6.78
2022-07-28T13:27:55.039Z,7.20
2022-07-28T13:30:24.098Z,7.32
2022-07-28T13:32:54.695Z,7.70
2022-07-28T13:35:22.795Z,7.68
2022-07-28T13:37:50.830Z,7.25
2022-07-28T13:40:18.434Z,7.20
2022-07-28T13:42:53.285Z,7.00
2022-07-28T13:45:25.211Z,7.28
2022-07-28T13:47:57.785Z,7.97
2022-07-28T13:50:25.782Z,6.53
2022-07-28T13:52:53.713Z,6.93
2022-07-28T13:55:23.096Z,6.85
2022-07-28T13:57:50.950Z,7.20
2022-07-28T14:00:21.104Z,6.63
2022-07-28T14:02:50.813Z,6.72
2022-07-28T14:05:18.536Z,6.65
2022-07-28T14:07:48.878Z,6.53
2022-07-28T14:10:18.029Z,7.28
2022-07-28T14:12:46.213Z,7.15
2022-07-28T14:15:14.556Z,6.80
2022-07-28T14:17:43.291Z,6.95
2022-07-28T14:20:12.981Z,6.78
2022-07-28T14:22:40.671Z,6.70
2022-07-28T14:25:08.514Z,6.68
2022-07-28T14:27:36.417Z,6.35
2022-07-28T14:30:04.717Z,6.78
2022-07-28T14:32:32.982Z,6.88
2022-07-28T14:35:02.247Z,7.60
2022-07-28T14:37:47.075Z,6.80
2022-07-28T14:40:18.556Z,6.38
2022-07-28T14:42:46.269Z,6.88
2022-07-28T14:45:14.325Z,6.80
2022-07-28T14:47:44.757Z,6.63
2022-07-28T14:50:13.252Z,6.63
2022-07-28T14:52:40.994Z,6.82
2022-07-28T14:55:13.292Z,6.45
2022-07-28T14:57:50.051Z,6.63
2022-07-28T15:00:22.687Z,6.80
2022-07-28T15:02:51.891Z,6.45
2022-07-28T15:05:20.421Z,6.85
2022-07-28T15:07:49.458Z,7.32
2022-07-28T15:10:17.250Z,6.03
2022-07-28T15:12:45.175Z,6.30
2022-07-28T15:15:13.208Z,6.32
2022-07-28T15:17:40.888Z,6.03
2022-07-28T15:20:10.536Z,5.95
2022-07-28T15:22:38.235Z,5.28
2022-07-28T15:25:06.186Z,5.72
2022-07-28T15:27:34.151Z,5.80
2022-07-28T15:30:02.999Z,5.82
2022-07-28T15:32:31.787Z,6.40
2022-07-28T15:34:59.838Z,6.18
2022-07-28T15:37:28.062Z,5.88
2022-07-28T15:39:55.835Z,5.75
2022-07-28T15:42:23.516Z,5.80
2022-07-28T15:44:52.774Z,5.65
2022-07-28T15:47:20.394Z,6.00
2022-07-28T15:49:48.060Z,5.97
2022-07-28T15:52:15.940Z,5.45
2022-07-28T15:54:43.678Z,5.40
2022-07-28T15:57:14.137Z,6.07
2022-07-28T15:59:49.433Z,5.80
2022-07-28T16:02:19.311Z,5.75
2022-07-28T16:04:53.738Z,5.75
2022-07-28T16:07:25.207Z,5.35
2022-07-28T16:09:55.368Z,5.35
2022-07-28T16:12:24.822Z,5.40
2022-07-28T16:14:53.941Z,5.68
2022-07-28T16:17:24.770Z,5.93
2022-07-28T16:19:53.780Z,6.40
2022-07-28T16:22:21.937Z,5.97
2022-07-28T16:24:50.678Z,5.70
2022-07-28T16:27:18.380Z,5.80
2022-07-28T16:29:45.985Z,5.40
2022-07-28T16:32:13.638Z,5.72
2022-07-28T16:34:41.436Z,5.00
2022-07-28T16:37:09.154Z,5.68
2022-07-28T16:39:36.841Z,4.95
2022-07-28T16:42:04.651Z,5.38
2022-07-28T16:44:33.685Z,5.07
2022-07-28T16:47:02.198Z,5.40
2022-07-28T16:49:30.042Z,4.78
2022-07-28T16:51:58.309Z,6.38
2022-07-28T16:54:25.946Z,5.20
2022-07-28T16:56:55.388Z,5.47
2022-07-28T16:59:23.556Z,5.30
2022-07-28T17:02:05.207Z,5.15
2022-07-28T17:04:32.927Z,5.55
2022-07-28T17:07:00.615Z,5.20
2022-07-28T17:09:28.297Z,4.80
2022-07-28T17:11:55.946Z,5.45
2022-07-28T17:14:23.591Z,5.15
2022-07-28T17:16:51.243Z,5.38
2022-07-28T17:19:21.413Z,4.97
2022-07-28T17:21:49.149Z,5.38
2022-07-28T17:24:17.232Z,5.15
2022-07-28T17:29:35.966Z,4.90
2022-07-28T17:32:03.610Z,5.25
2022-07-28T17:34:31.571Z,4.70
2022-07-28T17:36:59.260Z,4.80
2022-07-28T17:39:27.000Z,4.82
2022-07-28T17:41:54.756Z,4.75
2022-07-28T17:44:22.559Z,4.95
2022-07-28T17:46:50.564Z,4.80
2022-07-28T17:49:18.337Z,4.70
2022-07-28T17:51:46.118Z,4.70
2022-07-28T17:54:15.757Z,4.30
2022-07-28T17:56:43.777Z,4.45
2022-07-28T17:59:12.879Z,6.18
2022-07-28T18:01:45.240Z,5.88
2022-07-28T18:04:13.559Z,4.80
2022-07-28T18:06:41.680Z,4.55
2022-07-28T18:09:12.543Z,4.55
2022-07-28T18:11:55.625Z,4.90
2022-07-28T18:14:29.297Z,4.47
2022-07-28T18:16:57.562Z,3.97
2022-07-28T18:19:25.372Z,4.90
2022-07-28T18:21:53.246Z,3.97
2022-07-28T18:24:22.325Z,4.90
2022-07-28T18:26:51.452Z,4.88
2022-07-28T18:29:20.364Z,5.25
2022-07-28T18:31:49.333Z,6.00
2022-07-28T18:34:17.586Z,5.68
2022-07-28T18:36:46.169Z,6.43
2022-07-28T18:39:13.919Z,7.05
2022-07-28T18:41:46.861Z,6.45
2022-07-28T18:44:19.119Z,6.45
2022-07-28T18:46:47.602Z,5.93
2022-07-28T18:49:15.761Z,4.93
2022-07-28T18:51:44.900Z,5.82
2022-07-28T18:54:13.315Z,5.55
2022-07-28T18:56:41.242Z,6.45
2022-07-28T18:59:08.908Z,5.90
2022-07-28T19:01:36.611Z,7.20
2022-07-28T19:04:04.477Z,8.38
2022-07-28T19:06:32.203Z,8.10
2022-07-28T19:08:59.793Z,8.18
2022-07-28T19:11:27.478Z,7.20
2022-07-28T19:13:55.090Z,6.75
2022-07-28T19:16:22.777Z,7.32
2022-07-28T19:18:50.538Z,6.53
2022-07-28T19:21:18.255Z,5.93
2022-07-28T19:23:46.850Z,5.85
2022-07-28T19:26:14.710Z,6.22
2022-07-28T19:28:42.485Z,6.20
2022-07-28T19:31:10.934Z,5.20
2022-07-28T19:33:43.730Z,5.55
2022-07-28T19:36:13.545Z,5.97
2022-07-28T19:38:41.390Z,5.63
2022-07-28T19:41:09.503Z,6.45
2022-07-28T19:43:37.196Z,5.75
2022-07-28T19:46:04.922Z,5.68
2022-07-28T19:48:34.106Z,5.07
2022-07-28T19:51:02.005Z,5.45
2022-07-28T19:53:31.967Z,6.00
2022-07-28T19:56:02.187Z,5.88
2022-07-28T19:58:29.879Z,5.60
2022-07-28T20:00:57.551Z,5.95
2022-07-28T20:04:01.283Z,5.97
2022-07-28T20:06:12.958Z,5.97
2022-07-28T20:08:40.688Z,6.57
2022-07-28T20:11:08.688Z,6.03
2022-07-28T20:13:36.398Z,5.85
2022-07-28T20:16:04.674Z,5.65
2022-07-28T20:18:32.311Z,6.35
2022-07-28T20:20:59.931Z,5.63
2022-07-28T20:23:27.569Z,5.72
2022-07-28T20:25:55.257Z,6.53
2022-07-28T20:28:22.965Z,6.03
2022-07-28T20:30:50.712Z,5.78
2022-07-28T20:33:18.538Z,5.65
2022-07-28T20:35:46.245Z,6.47
2022-07-28T20:38:13.839Z,5.75
2022-07-28T20:40:41.601Z,5.88
2022-07-28T20:43:09.246Z,6.13
2022-07-28T20:45:36.884Z,5.57
2022-07-28T20:48:04.689Z,5.55
2022-07-28T20:50:32.286Z,5.25
2022-07-28T20:53:00.032Z,5.75
2022-07-28T20:55:37.998Z,5.22
2022-07-28T20:58:06.114Z,5.57
2022-07-28T21:00:33.889Z,5.88
2022-07-28T21:03:01.726Z,5.50
2022-07-28T21:05:35.596Z,5.30
2022-07-28T21:08:05.929Z,5.30
2022-07-28T21:10:34.609Z,5.13
2022-07-28T21:13:02.289Z,5.07
2022-07-28T21:15:30.042Z,5.93
2022-07-28T21:17:57.737Z,5.65
2022-07-28T21:20:25.666Z,6.07
2022-07-28T21:22:53.315Z,5.70
2022-07-28T21:25:21.454Z,5.82
2022-07-28T21:28:08.142Z,6.05
2022-07-28T21:30:35.743Z,6.15
2022-07-28T21:33:03.419Z,5.90
2022-07-28T21:35:31.111Z,5.75
2022-07-28T21:37:58.792Z,5.80
2022-07-28T21:40:26.816Z,5.75
2022-07-28T21:42:54.502Z,6.07
2022-07-28T21:45:22.343Z,5.50
2022-07-28T21:47:50.029Z,6.60
2022-07-28T21:50:17.698Z,6.13
2022-07-28T21:52:45.327Z,6.05
2022-07-28T21:55:13.153Z,6.05
2022-07-28T21:57:40.799Z,6.40
2022-07-28T22:00:10.313Z,5.32
2022-07-28T22:02:37.951Z,5.88
2022-07-28T22:05:08.885Z,5.60
2022-07-28T22:07:36.649Z,6.18
2022-07-28T22:10:04.554Z,5.53
2022-07-28T22:12:32.227Z,5.75
2022-07-28T22:14:59.882Z,3.88
2022-07-28T22:17:27.577Z,3.80
2022-07-28T22:19:55.172Z,3.60
2022-07-28T22:22:22.811Z,2.33
2022-07-28T22:24:50.476Z,2.17
2022-07-28T22:27:18.122Z,1.70
2022-07-28T22:29:51.340Z,2.00
2022-07-28T22:32:28.134Z,1.40
2022-07-28T22:34:58.089Z,1.95
2022-07-28T22:37:25.809Z,1.33
2022-07-28T22:39:53.539Z,1.23
2022-07-28T22:42:21.181Z,1.13
2022-07-28T22:44:49.526Z,1.10
2022-07-28T22:47:17.124Z,1.02
2022-07-28T22:49:44.756Z,1.17
2022-07-28T22:52:12.383Z,1.08
2022-07-28T22:54:40.719Z,1.20
2022-07-28T22:57:28.969Z,0.95
2022-07-28T22:59:57.053Z,1.00
2022-07-28T23:02:26.003Z,1.13
2022-07-28T23:04:54.125Z,1.40
2022-07-28T23:07:51.389Z,1.20
2022-07-28T23:10:10.414Z,1.60
2022-07-28T23:12:38.069Z,1.27
2022-07-28T23:15:06.466Z,1.48
2022-07-28T23:17:34.224Z,1.58
2022-07-28T23:20:02.172Z,1.40
2022-07-28T23:22:29.901Z,1.48
2022-07-28T23:24:58.370Z,1.33
2022-07-28T23:27:26.095Z,1.35
2022-07-28T23:29:53.854Z,1.73
2022-07-28T23:32:21.576Z,1.60
2022-07-28T23:34:49.778Z,1.80
2022-07-28T23:37:17.571Z,2.00
2022-07-28T23:39:45.219Z,1.75
2022-07-28T23:42:13.018Z,2.00
2022-07-28T23:44:40.738Z,2.50
2022-07-28T23:47:08.544Z,2.00
2022-07-28T23:49:36.290Z,2.05
2022-07-28T23:52:03.974Z,2.03
2022-07-28T23:54:31.749Z,2.33
2022-07-28T23:56:59.517Z,2.30
2022-07-28T23:59:27.207Z,2.10
